Terminal Aerodrome Forecast
Issued by NWS Sterling, VA

Home | Current Version | Previous Version | Text Only | Print | Product List | Glossary On
Versions: 1 2 3 4 5 6 7 8 9 10 11 12 13 14 15 16 17 18 19 20 21 22 23
000
FTUS41 KLWX 312300
TAFIAD
TAF
KIAD 312320Z 0100/0206 VRB03KT P6SM SCT050
     FM010100 VRB03KT P6SM BKN050
     FM011900 16007KT P6SM BKN050 BKN100
     FM020000 16006KT 5SM -SHRA BKN050 OVC100
     FM020300 VRB03KT 5SM -SHRA BKN015 OVC100=

USA.gov is the U.S. government's official web portal to all federal, state and local government web resources and services.